Time;durP1;ratioP1;P1;durP2;ratioP2;P2;SDS_P1;SDS_P2;PMS_P1;PMS_P2;Temp;Humidity;BMP_temperature;BMP_pressure;BME280_temperature;BME280_humidity;BME280_pressure;Samples;Min_cycle;Max_cycle;Signal;HPM_P1;HPM_P2
2022/11/10 00:17:03;;;;;;;64.30;35.40;;;;;;;;;;5036853;28;20071;-91
2022/11/10 00:20:13;;;;;;;68.93;35.00;;;;;;;;;;5015021;28;20056;-92
2022/11/10 00:35:34;;;;;;;70.40;36.15;;;;;;;;;;4995103;28;20029;-92
2022/11/10 00:39:08;;;;;;;70.03;34.65;;;;;;;;;;4936716;29;20055;-92
2022/11/10 00:42:12;;;;;;;75.72;35.90;;;;;;;;;;4861695;29;20511;-92
2022/11/10 00:45:19;;;;;;;69.72;36.53;;;;;;;;;;4856025;29;20033;-91
2022/11/10 00:48:21;;;;;;;63.53;35.40;;;;;;;;;;4861423;29;20041;-91
2022/11/10 00:51:17;;;;;;;67.45;34.60;;;;;;;;;;4757605;30;20046;-91
2022/11/10 00:54:05;;;;;;;69.13;38.40;;;205.00;2252.80;;;;;;4823566;29;20069;-91
2022/11/10 00:56:32;;;;;;;64.80;38.13;;;180.10;2252.80;;;;;;4965667;28;20038;-90
2022/11/10 00:58:58;;;;;;;64.30;36.60;;;179.80;2252.80;;;;;;4978534;28;20403;-90
2022/11/10 01:01:36;;;;;;;72.90;40.15;;;179.90;2252.80;;;;;;5001592;28;20099;-91
2022/11/10 01:04:24;;;;;;;77.55;40.70;;;179.80;2252.80;;;;;;5034471;28;20026;-91
2022/11/10 01:07:32;;;;;;;86.53;39.95;;;;;;;;;;5010338;28;20491;-91
2022/11/10 01:09:59;;;;;;;77.32;39.72;;;179.70;2252.80;;;;;;4997406;28;20116;-90
2022/11/10 01:12:28;;;;;;;69.32;39.60;;;;;;;;;;4982209;28;20038;-91
2022/11/10 01:14:55;;;;;;;73.53;38.92;;;;;;;;;;5025174;28;20022;-90
2022/11/10 01:17:22;;;;;;;60.15;36.42;;;179.90;2252.80;;;;;;5014741;28;20088;-91
2022/11/10 01:19:48;;;;;;;129.10;37.63;;;;;;;;;;4997947;28;20028;-91
2022/11/10 01:22:14;;;;;;;56.97;33.38;;;;;;;;;;4998143;28;20022;-91
2022/11/10 01:24:41;;;;;;;66.85;33.15;;;;;;;;;;4998130;28;20108;-91
2022/11/10 01:27:07;;;;;;;56.38;30.00;;;;;;;;;;4999112;28;20018;-91
2022/11/10 01:29:34;;;;;;;58.05;33.22;;;;;;;;;;5015047;28;20479;-91
2022/11/10 01:32:02;;;;;;;56.03;32.13;;;;;;;;;;5015271;28;20039;-91
2022/11/10 01:34:32;;;;;;;49.22;30.17;;;;;;;;;;5015173;28;20029;-91
2022/11/10 01:37:07;;;;;;;50.45;29.45;;;;;;;;;;5015320;28;20033;-90
2022/11/10 01:39:39;;;;;;;48.78;27.73;;;;;;;;;;4997958;28;20037;-91
2022/11/10 01:42:06;;;;;;;53.03;27.52;;;;;;;;;;4998273;28;20044;-89
2022/11/10 01:44:35;;;;;;;54.70;26.85;;;;;;;;;;4999054;28;20122;-88
2022/11/10 01:47:11;;;;;;;57.38;27.55;;;;;;;;;;5017611;28;20088;-89
2022/11/10 01:49:47;;;;;;;50.15;27.13;;;;;;;;;;5008553;28;20026;-89
2022/11/10 01:59:14;;;;;;;;;;;;;;;;;;;;;
2022/11/10 02:02:18;;;;;;;;;;;;;;;;;;;;;
2022/11/10 02:05:17;;;;;;;61.30;30.98;;;;;;;;;;4942279;28;20103;-89
2022/11/10 02:07:51;;;;;;;46.03;26.70;;;;;;;;;;4936843;28;20129;-90
2022/11/10 02:10:45;;;;;;;47.80;27.83;;;;;;;;;;4961337;28;20069;-90
2022/11/10 02:13:39;;;;;;;49.40;28.15;;;;;;;;;;4952515;28;20508;-91
2022/11/10 02:16:32;;;;;;;55.72;28.83;;;;;;;;;;4944205;28;20066;-91
2022/11/10 02:19:31;;;;;;;55.10;26.92;;;;;;;;;;4965036;28;20135;-90
2022/11/10 02:22:26;;;;;;;51.20;27.58;;;;;;;;;;4976816;28;20043;-90
2022/11/10 02:25:42;;;;;;;45.63;26.42;;;;;;;;;;5012316;28;20052;-90
2022/11/10 02:28:33;;;;;;;46.08;24.50;;;;;;;;;;5013479;28;20026;-91
2022/11/10 02:31:39;;;;;;;53.10;25.10;;;;;;;;;;5003089;28;20156;-91
2022/11/10 02:34:31;;;;;;;47.80;26.88;;;;;;;;;;4996500;28;20030;-90
2022/11/10 02:37:57;;;;;;;48.92;28.70;;;;;;;;;;4934723;29;20442;-90
2022/11/10 02:41:09;;;;;;;45.13;24.63;;;;;;;;;;4896261;29;20043;-90
2022/11/10 02:44:30;;;;;;;60.60;26.85;;;;;;;;;;4829009;29;20038;-88
2022/11/10 02:47:59;;;;;;;;;;;;;;;;;;;;;
2022/11/10 02:54:13;;;;;;;;;;;;;;;;;;;;;
2022/11/10 02:57:09;;;;;;;55.60;28.42;;;;;;;;;;4717522;30;20033;-91
2022/11/10 03:00:24;;;;;;;53.50;29.63;;;;;;;;;;4715330;30;20045;-90
2022/11/10 03:05:56;;;;;;;45.50;24.60;;;;;;;;;;5133060;27;20111;-86
2022/11/10 03:08:22;;;;;;;51.08;25.95;;;;;;;;;;5112337;28;20126;-87
2022/11/10 03:10:52;;;;;;;57.30;26.52;;;;;;;;;;5094960;28;20464;-86
2022/11/10 03:13:18;;;;;;;40.88;25.10;;;;;;;;;;5094875;28;20034;-86
2022/11/10 03:15:46;;;;;;;54.05;26.58;;;;;;;;;;5112770;28;20455;-86
2022/11/10 03:18:12;;;;;;;57.30;27.48;;;;;;;;;;5094769;28;20062;-86
2022/11/10 03:20:39;;;;;;;61.13;27.25;;;;;;;;;;5094140;28;20054;-86
2022/11/10 03:23:06;;;;;;;48.75;26.75;;;;;;;;;;5094142;28;20024;-86
2022/11/10 03:25:33;;;;;;;46.05;25.55;;;;;;;;;;5094489;28;20031;-86
2022/11/10 03:27:59;;;;;;;55.58;26.58;;;;;;;;;;5111987;28;20048;-86
2022/11/10 03:30:26;;;;;;;49.42;27.00;;;;;;;;;;5093824;28;20472;-87
2022/11/10 03:32:52;;;;;;;48.50;25.95;;;;;;;;;;5112541;28;20035;-86
2022/11/10 03:35:18;;;;;;;55.45;26.35;;;;;;;;;;5094010;28;20034;-86
2022/11/10 03:37:44;;;;;;;60.17;26.63;;;;;;;;;;5094110;28;20020;-86
2022/11/10 03:40:10;;;;;;;66.20;27.58;;;;;;;;;;5094088;28;20024;-87
2022/11/10 03:42:40;;;;;;;49.25;24.88;;;;;;;;;;5094273;28;20028;-86
2022/11/10 03:45:06;;;;;;;57.78;27.30;;;;;;;;;;5095757;28;20028;-85
2022/11/10 03:47:33;;;;;;;49.78;25.80;;;;;;;;;;5095246;28;20028;-85
2022/11/10 03:49:59;;;;;;;46.15;25.15;;;;;;;;;;5095252;28;20023;-85
2022/11/10 03:52:25;;;;;;;46.88;25.75;;;;;;;;;;5113799;28;20027;-85
2022/11/10 03:54:51;;;;;;;52.10;25.95;;;;;;;;;;5095656;28;20519;-85
2022/11/10 03:57:17;;;;;;;52.42;27.33;;;;;;;;;;5094797;28;20023;-86
2022/11/10 03:59:43;;;;;;;53.28;28.75;;;;;;;;;;5093648;28;20479;-85
2022/11/10 04:02:09;;;;;;;51.00;25.75;;;;;;;;;;5093588;28;20024;-85
2022/11/10 04:10:12;;;;;;;53.78;31.38;;;;;;;;;;5111278;28;20035;-86
2022/11/10 04:15:43;;;;;;;51.75;27.45;;;;;;;;;;5087837;28;20036;-86
2022/11/10 04:18:19;;;;;;;56.80;28.60;;;;;;;;;;5096370;28;20020;-86
2022/11/10 04:20:46;;;;;;;53.13;28.15;;;;;;;;;;5096577;28;20027;-86
2022/11/10 04:26:29;;;;;;;66.35;29.42;;;;;;;;;;5097543;28;20054;-86
2022/11/10 04:28:57;;;;;;;63.25;30.15;;;;;;;;;;5096545;28;20035;-86
2022/11/10 04:31:24;;;;;;;74.13;31.23;;;;;;;;;;5096100;28;20024;-86
2022/11/10 04:33:50;;;;;;;52.72;27.77;;;;;;;;;;5096304;28;20043;-87
2022/11/10 04:36:17;;;;;;;76.65;30.35;;;;;;;;;;5090737;28;20021;-86
2022/11/10 04:38:44;;;;;;;67.80;29.45;;;;;;;;;;5096052;28;20035;-87
2022/11/10 04:41:11;;;;;;;53.22;27.50;;;;;;;;;;5095003;28;20039;-86
2022/11/10 04:43:37;;;;;;;59.05;29.63;;;;;;;;;;5095786;28;20028;-87
2022/11/10 04:46:04;;;;;;;57.40;27.30;;;;;;;;;;5095933;28;20028;-86
2022/11/10 04:48:30;;;;;;;59.50;28.27;;;;;;;;;;5096811;28;20016;-86
2022/11/10 04:50:57;;;;;;;54.13;28.40;;;;;;;;;;5097520;28;20379;-87
2022/11/10 04:53:24;;;;;;;63.90;34.38;;;;;;;;;;5097454;28;20020;-86
2022/11/10 04:55:50;;;;;;;65.97;36.70;;;;;;;;;;5096929;28;20074;-86
2022/11/10 04:58:16;;;;;;;61.60;30.65;;;;;;;;;;5097891;28;20056;-86
2022/11/10 05:00:42;;;;;;;48.97;28.05;;;;;;;;;;5115834;28;20024;-85
2022/11/10 05:03:10;;;;;;;49.70;29.33;;;;;;;;;;5115790;28;20020;-87
2022/11/10 05:05:36;;;;;;;57.25;30.30;;;;;;;;;;5095695;28;20060;-86
2022/11/10 05:08:02;;;;;;;56.33;28.70;;;;;;;;;;5096054;28;20020;-86
2022/11/10 05:10:28;;;;;;;51.13;28.88;;;;;;;;;;5095999;28;20027;-87
2022/11/10 05:12:55;;;;;;;55.67;30.23;;;;;;;;;;5095146;28;20035;-86
2022/11/10 05:15:22;;;;;;;62.63;32.65;;;;;;;;;;5095471;28;20020;-87
2022/11/10 05:17:52;;;;;;;59.88;33.58;;;;;;;;;;5095641;28;20050;-87
2022/11/10 05:20:19;;;;;;;51.85;29.48;;;;;;;;;;5094983;28;20024;-86
2022/11/10 05:23:36;;;;;;;58.60;30.02;;;;;;;;;;5096838;28;20464;-87
2022/11/10 05:25:32;;;;;;;56.33;28.88;;;;;;;;;;5096408;28;20040;-87
2022/11/10 05:27:58;;;;;;;55.78;31.92;;;;;;;;;;5094296;28;20024;-87
2022/11/10 05:30:26;;;;;;;62.78;36.38;;;;;;;;;;5096489;28;20031;-86
2022/11/10 05:32:52;;;;;;;62.35;35.85;;;;;;;;;;5095243;28;20024;-86
2022/11/10 05:35:18;;;;;;;65.35;37.45;;;;;;;;;;5095268;28;20050;-87
2022/11/10 05:37:44;;;;;;;69.53;40.13;;;;;;;;;;5095091;28;20020;-87
2022/11/10 05:40:11;;;;;;;71.63;40.97;;;;;;;;;;5095313;28;20110;-85
2022/11/10 05:42:47;;;;;;;78.18;45.05;;;;;;;;;;5094597;28;20032;-84
2022/11/10 05:45:13;;;;;;;83.85;47.25;;;;;;;;;;5094865;28;20055;-84
2022/11/10 05:47:39;;;;;;;69.63;43.15;;;;;;;;;;5094600;28;20089;-85
2022/11/10 05:50:06;;;;;;;84.45;48.13;;;;;;;;;;5094740;28;20471;-86
2022/11/10 05:52:32;;;;;;;79.22;48.70;;;;;;;;;;5094614;28;20027;-87
2022/11/10 05:54:59;;;;;;;76.22;47.05;;;;;;;;;;5094172;28;20028;-87
2022/11/10 05:57:25;;;;;;;78.45;46.70;;;;;;;;;;5095986;28;20020;-87
2022/11/10 05:59:51;;;;;;;84.07;48.33;;;;;;;;;;5094781;28;20144;-87
2022/11/10 06:02:17;;;;;;;70.93;41.70;;;;;;;;;;5094256;28;20060;-86
2022/11/10 06:04:43;;;;;;;84.18;51.58;;;;;;;;;;5094180;28;20060;-87
2022/11/10 06:07:10;;;;;;;79.20;45.38;;;;;;;;;;5094388;28;20077;-87
2022/11/10 06:09:36;;;;;;;91.88;52.83;;;;;;;;;;5095477;28;20016;-86
2022/11/10 06:12:03;;;;;;;145.50;90.60;;;;;;;;;;5094419;28;20027;-87
2022/11/10 06:14:29;;;;;;;96.68;57.20;;;;;;;;;;5095260;28;20118;-87
2022/11/10 06:16:55;;;;;;;75.47;47.55;;;;;;;;;;5094115;28;20060;-87
2022/11/10 06:19:22;;;;;;;80.75;46.65;;;;;;;;;;5094606;28;20016;-87
2022/11/10 06:21:48;;;;;;;73.68;47.45;;;;;;;;;;5094358;28;20360;-87
2022/11/10 06:24:14;;;;;;;71.00;45.22;;;;;;;;;;5094837;28;20039;-87
2022/11/10 06:26:40;;;;;;;83.47;55.60;;;;;;;;;;5093592;28;20031;-86
2022/11/10 06:29:06;;;;;;;81.68;46.55;;;;;;;;;;5094101;28;20395;-88
2022/11/10 06:31:32;;;;;;;82.22;47.03;;;;;;;;;;5093568;28;20137;-88
2022/11/10 06:33:59;;;;;;;80.13;41.47;;;;;;;;;;5094932;28;20046;-86
2022/11/10 06:36:25;;;;;;;78.03;45.45;;;;;;;;;;5093740;28;20020;-86
2022/11/10 06:38:51;;;;;;;68.43;41.13;;;;;;;;;;5093514;28;20031;-88
2022/11/10 06:41:17;;;;;;;70.65;42.60;;;;;;;;;;5094039;28;20073;-87
2022/11/10 06:43:43;;;;;;;81.50;50.47;;;;;;;;;;5093666;28;20386;-88
2022/11/10 06:46:09;;;;;;;80.65;44.72;;;;;;;;;;5093919;28;20059;-87
2022/11/10 06:48:35;;;;;;;74.55;44.15;;;;;;;;;;5094819;28;20371;-86
2022/11/10 06:51:02;;;;;;;66.93;42.88;;;205.60;2252.80;;;;;;5094437;28;20021;-88
2022/11/10 06:53:28;;;;;;;65.95;41.47;;;;;;;;;;5093771;28;20020;-87
2022/11/10 06:55:54;;;;;;;63.33;36.70;;;;;;;;;;5093611;28;20027;-87
2022/11/10 06:58:20;;;;;;;59.22;35.28;;;;;;;;;;5093273;28;20110;-86
2022/11/10 07:00:46;;;;;;;68.78;41.33;;;;;;;;;;5093717;28;20387;-86
2022/11/10 07:03:13;;;;;;;63.53;38.50;;;205.70;2252.80;;;;;;5093778;28;20023;-86
2022/11/10 07:05:40;;;;;;;64.72;40.67;;;;;;;;;;5093130;28;20048;-86
2022/11/10 07:08:12;;;;;;;65.55;39.80;;;;;;;;;;5093400;28;20020;-86
2022/11/10 07:10:38;;;;;;;64.50;38.60;;;;;;;;;;5093572;28;20073;-86
2022/11/10 07:13:05;;;;;;;65.30;42.45;;;;;;;;;;5093041;28;20032;-88
2022/11/10 07:15:32;;;;;;;74.63;45.55;;;;;;;;;;5093310;28;20115;-88
2022/11/10 07:17:58;;;;;;;73.95;46.85;;;;;;;;;;5094911;28;20051;-87
2022/11/10 07:20:25;;;;;;;71.22;41.88;;;;;;;;;;5093266;28;20020;-85
2022/11/10 07:22:56;;;;;;;70.40;42.10;;;;;;;;;;5093402;28;20017;-87
2022/11/10 07:25:22;;;;;;;79.18;48.22;;;;;;;;;;5093125;28;20468;-86
2022/11/10 07:27:59;;;;;;;68.30;47.13;;;;;;;;;;5093331;28;20024;-86
2022/11/10 07:30:26;;;;;;;71.13;43.67;;;;;;;;;;5093477;28;20028;-86
2022/11/10 07:33:21;;;;;;;66.53;43.35;;;;;;;;;;5093030;28;20025;-86
2022/11/10 07:35:53;;;;;;;66.20;41.05;;;;;;;;;;5072163;28;20036;-87
2022/11/10 07:38:19;;;;;;;81.57;48.00;;;;;;;;;;5074074;28;20074;-87
2022/11/10 07:40:44;;;;;;;85.97;51.25;;;230.50;2252.80;;;;;;5072674;28;20032;-88
2022/11/10 07:43:11;;;;;;;73.85;45.00;;;;;;;;;;5074117;28;20025;-88
2022/11/10 07:45:37;;;;;;;90.30;59.45;;;;;;;;;;5082292;28;20058;-87
2022/11/10 07:48:04;;;;;;;90.57;57.70;;;;;;;;;;5094025;28;20020;-87
2022/11/10 07:50:31;;;;;;;81.30;49.78;;;;;;;;;;5091910;28;20020;-86
2022/11/10 07:53:07;;;;;;;82.95;48.60;;;;;;;;;;5096525;28;20022;-85
2022/11/10 07:55:33;;;;;;;72.47;45.03;;;;;;;;;;5096444;28;20035;-87
2022/11/10 07:57:59;;;;;;;70.25;42.88;;;;;;;;;;5097397;28;20023;-88
2022/11/10 08:00:26;;;;;;;68.80;40.13;;;;;;;;;;5097022;28;20031;-86
2022/11/10 08:02:52;;;;;;;71.22;39.80;;;;;;;;;;5097055;28;20119;-85
2022/11/10 08:05:18;;;;;;;69.45;41.08;;;230.90;2252.80;;;;;;5097540;28;20060;-85
2022/11/10 08:07:44;;;;;;;69.75;40.45;;;230.80;2252.80;;;;;;5107581;28;20020;-85
2022/11/10 08:10:10;;;;;;;73.90;40.35;;;230.70;2252.80;;;;;;5111551;28;20024;-85
2022/11/10 08:12:36;;;;;;;76.15;42.25;;;;;;;;;;5099211;28;20031;-84
2022/11/10 08:15:03;;;;;;;73.90;40.35;;;;;;;;;;5095949;28;20077;-85
2022/11/10 08:17:29;;;;;;;69.90;40.55;;;231.10;2252.80;;;;;;5096061;28;20088;-83
2022/11/10 08:19:55;;;;;;;66.93;41.50;;;;;;;;;;5096129;28;20024;-84
2022/11/10 08:22:21;;;;;;;64.65;38.30;;;;;;;;;;5095723;28;20020;-86
2022/11/10 08:24:47;;;;;;;68.60;38.50;;;;;;;;;;5095634;28;20036;-88
2022/11/10 08:27:13;;;;;;;66.15;38.95;;;;;;;;;;5096070;28;20469;-85
2022/11/10 08:29:39;;;;;;;64.65;39.17;;;;;;;;;;5095573;28;20162;-84
2022/11/10 08:32:05;;;;;;;69.97;42.95;;;256.30;2252.80;;;;;;5095968;28;20024;-84
2022/11/10 08:34:31;;;;;;;69.13;41.50;;;256.10;2252.80;;;;;;5095839;28;20028;-82
2022/11/10 08:36:56;;;;;;;69.40;45.08;;;256.10;2252.80;;;;;;5096661;28;20038;-82
2022/11/10 08:39:22;;;;;;;71.55;44.13;;;256.20;2252.80;;;;;;5093226;28;20177;-82
2022/11/10 08:41:48;;;;;;;60.53;38.08;;;256.30;2252.80;;;;;;5109191;28;20023;-83
2022/11/10 08:44:14;;;;;;;55.65;37.67;;;256.20;2252.80;;;;;;5091942;28;20383;-82
2022/11/10 08:46:43;;;;;;;58.35;37.35;;;256.50;2252.80;;;;;;5081887;28;20080;-82
2022/11/10 08:49:08;;;;;;;59.80;36.45;;;256.50;2252.80;;;;;;5084083;28;20378;-86
2022/11/10 08:51:34;;;;;;;60.67;37.92;;;256.60;2252.80;;;;;;5089236;28;20063;-84
2022/11/10 08:54:00;;;;;;;52.35;31.30;;;256.80;2252.80;;;;;;5078321;28;20028;-83
2022/11/10 08:56:26;;;;;;;56.78;36.22;;;256.80;2252.80;;;;;;5089976;28;20067;-84
2022/11/10 08:58:53;;;;;;;52.42;34.60;;;256.80;2252.80;;;;;;5083575;28;20027;-85
2022/11/10 09:01:19;;;;;;;57.90;33.70;;;256.80;2252.80;;;;;;5082792;28;20032;-84
2022/11/10 09:03:45;;;;;;;58.60;36.53;;;256.90;2252.80;;;;;;5088311;28;20028;-86
2022/11/10 09:06:10;;;;;;;58.33;34.63;;;256.90;2252.80;;;;;;5038558;28;20464;-84
2022/11/10 09:08:37;;;;;;;53.97;36.97;;;256.90;2252.80;;;;;;5037925;28;20033;-86
2022/11/10 09:11:03;;;;;;;61.35;36.50;;;281.60;2278.40;;;;;;5047294;28;20388;-84
2022/11/10 09:13:30;;;;;;;58.22;35.22;;;281.60;2278.40;;;;;;5044167;28;20182;-84
2022/11/10 09:16:02;;;;;;;55.97;36.55;;;281.70;2278.40;;;;;;5071815;28;20032;-83
2022/11/10 09:18:28;;;;;;;;;;;281.80;2278.40;;;;;;5043049;28;20023;-84
2022/11/10 09:20:54;;;;;;;50.22;32.85;;;281.90;2278.40;;;;;;5048687;28;19987;-84
2022/11/10 09:23:21;;;;;;;49.38;34.33;;;282.00;2278.40;;;;;;5049679;28;20059;-84
2022/11/10 09:25:53;;;;;;;47.50;33.03;;;282.20;2278.40;;;;;;5040661;28;20025;-82
2022/11/10 09:28:20;;;;;;;52.13;34.50;;;282.20;2278.40;;;;;;5037667;28;20075;-82
2022/11/10 09:30:47;;;;;;;50.00;31.98;;;282.30;2278.40;;;;;;5045202;28;20392;-82
2022/11/10 09:33:13;;;;;;;52.30;34.35;;;282.30;2278.40;;;;;;5063144;28;20083;-83
2022/11/10 09:35:39;;;;;;;66.93;40.40;;;282.30;2278.40;;;;;;5052390;28;20024;-82
2022/11/10 09:38:06;;;;;;;50.17;37.08;;;307.20;2304.00;;;;;;5038529;28;20120;-83
2022/11/10 09:40:35;;;;;;;57.90;36.70;;;;;;;;;;5042668;28;20056;-84
2022/11/10 09:43:02;;;;;;;59.72;43.40;;;;;;;;;;5047391;28;20036;-83
2022/11/10 09:45:40;;;;;;;53.92;32.10;;;307.90;2304.00;;;;;;5050023;28;20028;-83
2022/11/10 09:48:17;;;;;;;52.05;36.47;;;307.80;2304.00;;;;;;5040554;28;20709;-84
2022/11/10 09:50:57;;;;;;;53.65;34.63;;;308.10;2304.00;;;;;;5049595;28;20029;-83
2022/11/10 09:53:33;;;;;;;48.92;33.03;;;308.00;2304.00;;;;;;5049529;28;20103;-83
2022/11/10 09:56:03;;;;;;;41.75;28.52;;;332.80;2329.60;;;;;;5057847;28;20029;-82
2022/11/10 09:58:43;;;;;;;44.28;30.60;;;332.90;2329.60;;;;;;5051462;28;20372;-84
2022/11/10 10:01:26;;;;;;;55.58;37.50;;;333.20;2329.60;;;;;;5047051;28;20056;-81
2022/11/10 10:04:19;;;;;;;42.85;31.23;;;333.30;2329.60;;;;;;5040019;28;20453;-84
2022/11/10 10:07:16;;;;;;;36.83;26.42;;;333.30;2329.60;;;;;;4987094;28;20043;-85
2022/11/10 10:09:59;;;;;;;37.72;26.13;;;333.40;2329.60;;;;;;4991544;28;20029;-86
2022/11/10 10:12:37;;;;;;;45.13;33.13;;;333.40;2329.60;;;;;;5055202;28;20057;-87
2022/11/10 10:15:35;;;;;;;52.03;36.60;;;333.40;2329.60;;;;;;5036520;28;20057;-83
2022/11/10 10:18:22;;;;;;;44.38;33.30;;;333.70;2329.60;;;;;;5054722;28;20025;-80
2022/11/10 10:21:11;;;;;;;45.58;33.17;;;358.40;2329.60;;;;;;5036402;28;20028;-82
2022/11/10 10:23:58;;;;;;;38.67;27.65;;;333.70;2329.60;;;;;;5047552;28;20029;-84
2022/11/10 10:26:31;;;;;;;37.20;26.65;;;358.40;2329.60;;;;;;5041351;28;20067;-84
2022/11/10 10:29:01;;;;;;;36.78;25.75;;;;;;;;;;5052335;28;20461;-82
2022/11/10 10:31:34;;;;;;;34.78;24.75;;;;;;;;;;5043796;28;20019;-84
2022/11/10 10:34:01;;;;;;;38.78;25.40;;;359.10;2329.60;;;;;;5044469;28;20137;-83
2022/11/10 10:36:28;;;;;;;34.95;26.10;;;;;;;;;;5036478;28;20043;-87
2022/11/10 10:39:05;;;;;;;39.30;26.88;;;;;;;;;;5037096;28;20021;-86
2022/11/10 10:41:33;;;;;;;35.75;25.35;;;;;;;;;;5036271;28;20017;-85
2022/11/10 10:44:09;;;;;;;40.25;26.80;;;;;;;;;;5054308;28;20468;-85
2022/11/10 10:46:42;;;;;;;35.53;26.40;;;;;;;;;;5036357;28;20469;-84
2022/11/10 10:49:24;;;;;;;41.53;28.20;;;;;;;;;;5053857;28;20025;-84
2022/11/10 10:52:01;;;;;;;39.85;28.67;;;;;;;;;;5036305;28;20021;-84
2022/11/10 10:54:28;;;;;;;41.72;32.42;;;;;;;;;;5054104;28;20052;-85
2022/11/10 10:57:13;;;;;;;39.63;27.10;;;;;;;;;;5036457;28;20024;-83
2022/11/10 10:59:39;;;;;;;40.95;26.95;;;;;;;;;;5036162;28;20079;-81
2022/11/10 11:02:21;;;;;;;33.03;25.27;;;;;;;;;;5036864;28;20017;-87
2022/11/10 11:04:48;;;;;;;32.03;24.48;;;;;;;;;;5054239;28;20045;-83
2022/11/10 11:07:22;;;;;;;31.80;23.50;;;;;;;;;;5036758;28;20025;-88
2022/11/10 11:09:48;;;;;;;32.78;23.60;;;;;;;;;;5036438;28;20021;-85
2022/11/10 11:12:20;;;;;;;35.20;25.25;;;;;;;;;;5036979;28;20087;-84
2022/11/10 11:14:46;;;;;;;53.60;33.50;;;;;;;;;;5044390;28;20029;-83
2022/11/10 11:17:17;;;;;;;56.03;36.63;;;;;;;;;;5044208;28;20029;-83
2022/11/10 11:19:43;;;;;;;33.55;24.75;;;;;;;;;;5036583;28;20380;-84
2022/11/10 11:22:12;;;;;;;40.15;27.27;;;;;;;;;;5036526;28;20025;-85
2022/11/10 11:24:41;;;;;;;41.65;25.73;;;;;;;;;;5036098;28;20052;-87
2022/11/10 11:27:26;;;;;;;45.72;33.13;;;;;;;;;;5039234;28;20032;-87
2022/11/10 11:30:19;;;;;;;45.88;29.63;;;;;;;;;;5045270;28;20017;-86
2022/11/10 11:32:45;;;;;;;;;;;;;;;;;;5043990;28;20029;-87
2022/11/10 11:35:14;;;;;;;45.90;30.95;;;;;;;;;;5040935;28;19911;-87
2022/11/10 11:37:47;;;;;;;38.20;27.17;;;;;;;;;;5043756;28;20028;-85
2022/11/10 11:40:13;;;;;;;28.35;21.95;;;;;;;;;;5039817;28;20017;-85
2022/11/10 11:42:56;;;;;;;26.98;21.35;;;;;;;;;;5039659;28;20048;-84
2022/11/10 11:45:54;;;;;;;31.52;22.90;;;461.40;2380.80;;;;;;5061427;28;20035;-83
2022/11/10 11:48:46;;;;;;;47.53;32.80;;;;;;;;;;5079905;28;20086;-88
2022/11/10 11:51:30;;;;;;;31.17;23.15;;;461.50;2380.80;;;;;;5041582;28;20124;-84
2022/11/10 11:54:23;;;;;;;30.67;23.90;;;461.40;2380.80;;;;;;5080139;28;20032;-85
2022/11/10 11:56:50;;;;;;;32.90;23.48;;;461.60;2380.80;;;;;;5079885;28;20539;-85
2022/11/10 11:59:34;;;;;;;39.58;27.30;;;461.60;2380.80;;;;;;5079363;28;20024;-88
2022/11/10 12:02:21;;;;;;;57.38;40.65;;;486.40;2380.80;;;;;;5079915;28;20043;-83
2022/11/10 12:04:56;;;;;;;39.20;27.75;;;;;;;;;;5097951;28;20043;-86
2022/11/10 12:07:27;;;;;;;33.33;25.52;;;;;;;;;;5116643;28;20026;-86
2022/11/10 12:10:17;;;;;;;30.92;22.55;;;486.90;2380.80;;;;;;5116904;28;20556;-81
2022/11/10 12:13:08;;;;;;;31.75;21.88;;;486.70;2380.80;;;;;;5115532;28;20544;-86
2022/11/10 12:16:14;;;;;;;33.40;23.05;;;486.80;2380.80;;;;;;5076098;28;20070;-84
2022/11/10 12:18:44;;;;;;;31.45;22.98;;;;;;;;;;5080895;28;20041;-83
2022/11/10 12:21:28;;;;;;;35.10;24.30;;;487.00;2380.80;;;;;;5087644;28;20017;-83
2022/11/10 12:24:22;;;;;;;35.97;24.05;;;487.00;2380.80;;;;;;5075898;28;20483;-84
2022/11/10 12:27:07;;;;;;;32.42;25.88;;;;;;;;;;5077076;28;20021;-83
2022/11/10 12:29:39;;;;;;;33.70;25.67;;;487.10;2380.80;;;;;;5075762;28;20024;-85
2022/11/10 12:32:24;;;;;;;33.75;25.35;;;;;;;;;;5075768;28;20029;-83
2022/11/10 12:34:56;;;;;;;32.50;24.38;;;487.30;2380.80;;;;;;5076768;28;20024;-81
2022/11/10 12:37:34;;;;;;;;;;;512.00;2380.80;;;;;;5075507;28;20052;-83
2022/11/10 12:40:00;;;;;;;30.63;23.05;;;;;;;;;;5075583;28;19911;-85
2022/11/10 12:42:28;;;;;;;34.80;23.05;;;;;;;;;;5077105;28;20035;-84
2022/11/10 12:45:04;;;;;;;30.83;22.23;;;;;;;;;;5076367;28;20060;-83
2022/11/10 12:47:43;;;;;;;37.03;25.88;;;;;;;;;;5075204;28;20142;-86
2022/11/10 12:50:15;;;;;;;29.50;23.65;;;;;;;;;;5076443;28;20021;-81
2022/11/10 12:52:52;;;;;;;37.90;25.08;;;;;;;;;;5086856;28;20348;-86
2022/11/10 12:55:20;;;;;;;31.58;24.05;;;;;;;;;;5088995;28;20029;-84
2022/11/10 12:57:47;;;;;;;29.27;22.20;;;;;;;;;;5092298;28;20494;-85
2022/11/10 13:00:27;;;;;;;35.50;23.58;;;;;;;;;;5087454;28;20021;-83
2022/11/10 13:02:54;;;;;;;37.38;25.63;;;;;;;;;;5085814;28;20028;-88
2022/11/10 13:05:36;;;;;;;39.13;28.20;;;;;;;;;;5083037;28;20200;-86
2022/11/10 13:08:21;;;;;;;32.50;22.42;;;;;;;;;;5086448;28;20021;-86
2022/11/10 13:11:00;;;;;;;33.95;23.27;;;;;;;;;;5088745;28;20059;-85
2022/11/10 13:13:26;;;;;;;29.52;21.27;;;;;;;;;;5077431;28;20020;-85
2022/11/10 13:15:56;;;;;;;35.58;23.83;;;;;;;;;;5092728;28;20025;-86
2022/11/10 13:18:32;;;;;;;36.40;21.15;;;;;;;;;;5098490;28;20039;-85
2022/11/10 13:20:58;;;;;;;32.33;22.25;;;;;;;;;;5120324;28;20076;-84
2022/11/10 13:23:24;;;;;;;28.20;19.67;;;;;;;;;;5119504;28;20008;-82
2022/11/10 13:25:57;;;;;;;33.78;23.27;;;;;;;;;;5109426;28;20071;-82
2022/11/10 13:28:42;;;;;;;33.05;23.38;;;;;;;;;;5077895;28;20020;-83
2022/11/10 13:31:26;;;;;;;33.33;21.50;;;;;;;;;;5077942;28;20089;-86
2022/11/10 13:34:02;;;;;;;35.55;23.90;;;;;;;;;;5078414;28;20023;-84
2022/11/10 13:36:42;;;;;;;31.98;22.08;;;;;;;;;;5075941;28;20021;-84
2022/11/10 13:39:23;;;;;;;38.08;24.00;;;;;;;;;;5074528;28;20020;-84
2022/11/10 13:41:49;;;;;;;36.58;27.63;;;;;;;;;;5074642;28;20021;-83
2022/11/10 13:44:21;;;;;;;42.42;24.60;;;;;;;;;;5074183;28;20423;-83
2022/11/10 13:47:08;;;;;;;46.33;28.30;;;;;;;;;;5074397;28;20029;-81
2022/11/10 13:49:46;;;;;;;43.50;26.88;;;;;;;;;;5053077;28;20036;-82
2022/11/10 13:52:18;;;;;;;37.88;25.23;;;;;;;;;;5073803;28;20103;-81
2022/11/10 13:54:53;;;;;;;35.78;25.85;;;;;;;;;;5074018;28;20024;-80
2022/11/10 13:57:24;;;;;;;37.35;26.33;;;;;;;;;;5074122;28;20025;-80
2022/11/10 13:59:54;;;;;;;35.60;26.90;;;;;;;;;;5073957;28;20020;-82
2022/11/10 14:02:35;;;;;;;42.65;29.45;;;;;;;;;;5074512;28;20021;-83
2022/11/10 14:05:02;;;;;;;40.20;26.75;;;;;;;;;;5074063;28;20135;-86
2022/11/10 14:07:46;;;;;;;41.35;27.77;;;;;;;;;;5074744;28;20047;-83
2022/11/10 14:10:15;;;;;;;38.75;28.27;;;;;;;;;;5075260;28;20021;-80
2022/11/10 14:12:41;;;;;;;50.33;32.45;;;;;;;;;;5078962;28;20024;-83
2022/11/10 14:15:21;;;;;;;46.22;34.38;;;;;;;;;;5078798;28;20098;-84
2022/11/10 14:17:49;;;;;;;42.95;31.25;;;;;;;;;;5078596;28;20033;-84
2022/11/10 14:20:42;;;;;;;47.17;31.00;;;;;;;;;;5074143;28;20078;-86
2022/11/10 14:23:35;;;;;;;46.83;31.30;;;460.90;2380.80;;;;;;5089395;28;20077;-83
2022/11/10 14:26:06;;;;;;;58.53;35.72;;;460.80;2380.80;;;;;;5095957;28;20396;-83
2022/11/10 14:28:34;;;;;;;55.33;36.03;;;460.80;2380.80;;;;;;5073957;28;20113;-87
2022/11/10 14:31:00;;;;;;;52.05;35.95;;;436.10;2355.20;;;;;;5074167;28;20020;-86
2022/11/10 14:33:26;;;;;;;57.25;37.38;;;436.00;2355.20;;;;;;5074099;28;20021;-86
2022/11/10 14:35:59;;;;;;;52.83;36.15;;;435.90;2355.20;;;;;;5073641;28;20036;-84
2022/11/10 14:38:26;;;;;;;66.70;43.03;;;;;;;;;;5073559;28;20025;-86
2022/11/10 14:41:04;;;;;;;56.92;38.35;;;435.80;2355.20;;;;;;5073367;28;20073;-86
2022/11/10 14:43:30;;;;;;;53.60;36.53;;;;;;;;;;5073599;28;20493;-85
2022/11/10 14:45:56;;;;;;;64.05;43.60;;;;;;;;;;5073150;28;20117;-85
2022/11/10 14:48:24;;;;;;;51.50;37.28;;;;;;;;;;5073340;28;20025;-82
2022/11/10 14:50:51;;;;;;;50.20;35.22;;;;;;;;;;5073278;28;20027;-84
2022/11/10 14:53:19;;;;;;;58.22;41.35;;;;;;;;;;5073286;28;20060;-83
2022/11/10 14:55:46;;;;;;;48.25;34.17;;;435.30;2355.20;;;;;;5074114;28;20388;-84
2022/11/10 14:58:15;;;;;;;67.13;41.85;;;;;;;;;;5074106;28;20111;-87
2022/11/10 15:00:43;;;;;;;75.47;46.35;;;;;;;;;;5073469;28;20028;-86
2022/11/10 15:03:14;;;;;;;74.55;50.15;;;;;;;;;;5073423;28;20071;-87
2022/11/10 15:05:40;;;;;;;76.20;50.28;;;410.10;2355.20;;;;;;5077425;28;20052;-85
2022/11/10 15:08:08;;;;;;;83.32;56.10;;;409.90;2355.20;;;;;;5077350;28;20029;-84
2022/11/10 15:10:39;;;;;;;88.55;58.92;;;409.80;2355.20;;;;;;5077444;28;20024;-86